Time;durP1;ratioP1;P1;durP2;ratioP2;P2;SDS_P1;SDS_P2;PMS_P1;PMS_P2;Temp;Humidity;BMP_temperature;BMP_pressure;BME280_temperature;BME280_humidity;BME280_pressure;Samples;Min_cycle;Max_cycle;Signal;HPM_P1;HPM_P2
2022/12/01 00:01:12;;;;;;;34.73;21.87;;;;;;;;;;5070888;27;86893;-60
2022/12/01 00:03:41;;;;;;;34.53;21.53;;;;;;;;;;5082885;27;83042;-60
2022/12/01 00:06:10;;;;;;;33.30;20.87;;;;;;;;;;5083411;27;84865;-60
2022/12/01 00:08:40;;;;;;;38.43;23.97;;;;;;;;;;5083061;27;83118;-60
2022/12/01 00:11:08;;;;;;;32.67;23.03;;;;;;;;;;5082623;27;83560;-60
2022/12/01 00:13:36;;;;;;;36.67;24.53;;;;;;;;;;5078108;27;82784;-60
2022/12/01 00:16:11;;;;;;;39.20;24.43;;;;;;;;;;5061822;27;84056;-60
2022/12/01 00:18:39;;;;;;;37.30;23.17;;;;;;;;;;5063177;27;82990;-60
2022/12/01 00:21:09;;;;;;;37.50;22.30;;;;;;;;;;5062162;27;82765;-60
2022/12/01 00:23:37;;;;;;;38.90;23.47;;;;;;;;;;5062428;27;82927;-60
2022/12/01 00:26:07;;;;;;;30.97;21.63;;;;;;;;;;5062749;27;84765;-59
2022/12/01 00:28:35;;;;;;;37.13;22.67;;;;;;;;;;5062310;27;82614;-60
2022/12/01 00:31:07;;;;;;;33.80;20.93;;;;;;;;;;5063029;27;86135;-60
2022/12/01 00:33:35;;;;;;;31.67;20.53;;;;;;;;;;5061884;27;84178;-60
2022/12/01 00:36:04;;;;;;;35.57;19.73;;;;;;;;;;5062720;27;85016;-60
2022/12/01 00:38:32;;;;;;;30.97;19.53;;;;;;;;;;5058852;27;83820;-59
2022/12/01 00:41:00;;;;;;;34.07;20.83;;;;;;;;;;5051488;27;83908;-60
2022/12/01 00:43:30;;;;;;;43.67;23.77;;;;;;;;;;5078302;27;84121;-60
2022/12/01 00:45:58;;;;;;;37.83;23.00;;;;;;;;;;5061890;27;83799;-60
2022/12/01 00:48:27;;;;;;;37.90;22.00;;;;;;;;;;5062172;27;83244;-60
2022/12/01 00:50:55;;;;;;;37.33;20.40;;;;;;;;;;5063570;27;84470;-60
2022/12/01 00:53:23;;;;;;;34.10;21.37;;;;;;;;;;5062126;27;84009;-60
2022/12/01 00:55:53;;;;;;;38.90;22.23;;;;;;;;;;5062112;27;84881;-60
2022/12/01 00:58:21;;;;;;;35.07;18.93;;;;;;;;;;5057555;27;82915;-60
2022/12/01 01:00:51;;;;;;;30.80;17.73;;;;;;;;;;5055577;27;83847;-60
2022/12/01 01:03:20;;;;;;;29.90;16.40;;;;;;;;;;5042242;27;83086;-59
2022/12/01 01:05:48;;;;;;;32.23;18.63;;;;;;;;;;5041984;27;82612;-60
2022/12/01 01:08:16;;;;;;;33.07;18.47;;;;;;;;;;5042014;28;82940;-60
2022/12/01 01:10:45;;;;;;;29.57;17.87;;;;;;;;;;5043887;27;82752;-60
2022/12/01 01:13:13;;;;;;;25.90;15.83;;;;;;;;;;5045341;27;83038;-58
2022/12/01 01:15:41;;;;;;;23.50;13.93;;;;;;;;;;5064126;27;84180;-60
2022/12/01 01:18:11;;;;;;;27.57;14.93;;;;;;;;;;5082750;27;82762;-60
2022/12/01 01:20:40;;;;;;;20.30;12.53;;;;;;;;;;5045410;27;83524;-59
2022/12/01 01:23:08;;;;;;;24.13;13.50;;;;;;;;;;5044258;27;85000;-60
2022/12/01 01:25:36;;;;;;;18.47;11.53;;;;;;;;;;5054874;27;82774;-58
2022/12/01 01:28:05;;;;;;;18.30;11.30;;;;;;;;;;5044288;27;84162;-60
2022/12/01 01:30:33;;;;;;;20.70;11.13;;;;;;;;;;5047228;27;83950;-60
2022/12/01 01:33:01;;;;;;;17.27;9.47;;;;;;;;;;5048515;27;83257;-61
2022/12/01 01:35:31;;;;;;;16.67;10.43;;;;;;;;;;5045349;28;83924;-59
2022/12/01 01:37:59;;;;;;;17.47;10.57;;;;;;;;;;5044375;27;82710;-60
2022/12/01 01:40:28;;;;;;;16.87;9.40;;;;;;;;;;5051508;27;83603;-60
2022/12/01 01:42:56;;;;;;;21.70;11.60;;;;;;;;;;5049467;27;82927;-60
2022/12/01 01:45:25;;;;;;;17.27;9.43;;;;;;;;;;5062224;27;85109;-60
2022/12/01 01:47:53;;;;;;;14.80;9.27;;;;;;;;;;5065587;27;82864;-60
2022/12/01 01:50:23;;;;;;;16.43;9.70;;;;;;;;;;5063712;27;84007;-60
2022/12/01 01:52:53;;;;;;;13.00;7.87;;;;;;;;;;5045546;27;82198;-60
2022/12/01 01:55:21;;;;;;;12.97;8.83;;;;;;;;;;5055287;27;83722;-59
2022/12/01 01:57:50;;;;;;;13.73;9.20;;;;;;;;;;5059780;27;82125;-59
2022/12/01 02:00:19;;;;;;;11.00;7.90;;;;;;;;;;5047273;27;81867;-59
2022/12/01 02:02:47;;;;;;;15.37;8.60;;;;;;;;;;5053872;27;82872;-59
2022/12/01 02:05:17;;;;;;;14.13;8.47;;;;;;;;;;5064615;27;82772;-59
2022/12/01 02:07:45;;;;;;;13.23;7.87;;;;;;;;;;5065604;27;82239;-58
2022/12/01 02:10:21;;;;;;;13.00;7.57;;;;;;;;;;5045458;27;83938;-59
2022/12/01 02:13:01;;;;;;;17.20;8.37;;;;;;;;;;5044829;27;84123;-59
2022/12/01 02:15:31;;;;;;;12.73;7.23;;;;;;;;;;5054560;27;83645;-59
2022/12/01 02:18:01;;;;;;;12.60;7.53;;;;;;;;;;5051922;27;81996;-60
2022/12/01 02:20:47;;;;;;;10.43;6.30;;;;;;;;;;5062299;27;83005;-59
2022/12/01 02:23:36;;;;;;;13.63;6.83;;;;;;;;;;5040696;27;83851;-59
2022/12/01 02:26:09;;;;;;;9.73;7.00;;;;;;;;;;5052942;27;82595;-59
2022/12/01 02:28:49;;;;;;;8.37;6.37;;;;;;;;;;5050426;27;81990;-59
2022/12/01 02:31:18;;;;;;;9.17;5.83;;;;;;;;;;5054360;27;82882;-59
2022/12/01 02:33:50;;;;;;;12.57;7.33;;;;;;;;;;5059763;27;83452;-59
2022/12/01 02:36:19;;;;;;;9.10;5.53;;;;;;;;;;5070780;27;83006;-59
2022/12/01 02:38:48;;;;;;;8.13;5.47;;;;;;;;;;5084101;27;82987;-62
2022/12/01 02:41:18;;;;;;;10.57;6.03;;;;;;;;;;5065553;27;82777;-59
2022/12/01 02:43:49;;;;;;;7.37;4.83;;;;;;;;;;5042954;27;82753;-60
2022/12/01 02:46:19;;;;;;;10.63;5.33;;;;;;;;;;5048172;27;82563;-60
2022/12/01 02:48:50;;;;;;;7.60;4.83;;;;;;;;;;5045344;27;82003;-59
2022/12/01 02:51:19;;;;;;;8.47;4.97;;;;;;;;;;5044824;27;82569;-60
2022/12/01 02:53:47;;;;;;;6.87;4.83;;;;;;;;;;5044742;27;81994;-61
2022/12/01 02:56:15;;;;;;;9.13;4.87;;;;;;;;;;5045345;27;82406;-60
2022/12/01 02:58:44;;;;;;;7.10;4.27;;;;;;;;;;5049175;27;81962;-64
2022/12/01 03:01:17;;;;;;;9.33;4.97;;;;;;;;;;5064293;27;82876;-61
2022/12/01 03:03:51;;;;;;;8.60;4.60;;;;;;;;;;5054634;27;84019;-61
2022/12/01 03:06:21;;;;;;;8.80;5.10;;;;;;;;;;5044422;27;83730;-62
2022/12/01 03:08:51;;;;;;;6.57;4.50;;;;;;;;;;5044935;27;82009;-60
2022/12/01 03:11:27;;;;;;;8.00;4.83;;;;;;;;;;5063524;27;82859;-60
2022/12/01 03:13:58;;;;;;;6.20;4.80;;;;;;;;;;5053560;27;83934;-61
2022/12/01 03:16:27;;;;;;;8.47;4.80;;;;;;;;;;5058426;27;82401;-59
2022/12/01 03:18:57;;;;;;;6.77;4.33;;;;;;;;;;5064310;27;81945;-59
2022/12/01 03:21:26;;;;;;;11.63;4.83;;;;;;;;;;5063845;27;82802;-59
2022/12/01 03:23:56;;;;;;;7.63;4.30;;;;;;;;;;5062104;27;83181;-59
2022/12/01 03:26:24;;;;;;;6.37;4.30;;;;;;;;;;5049560;27;82797;-59
2022/12/01 03:28:53;;;;;;;7.63;3.87;;;;;;;;;;5044571;27;82965;-59
2022/12/01 03:31:23;;;;;;;6.43;4.37;;;;;;;;;;5051202;27;82898;-58
2022/12/01 03:33:52;;;;;;;6.27;3.50;;;;;;;;;;5055526;27;83307;-59
2022/12/01 03:36:23;;;;;;;6.47;3.60;;;;;;;;;;5048276;27;84018;-59
2022/12/01 03:38:52;;;;;;;5.97;3.10;;;;;;;;;;5044188;27;81921;-59
2022/12/01 03:41:22;;;;;;;6.90;3.70;;;;;;;;;;5044107;27;82741;-59
2022/12/01 03:43:52;;;;;;;6.03;3.80;;;;;;;;;;5043806;27;83144;-60
2022/12/01 03:46:22;;;;;;;7.03;4.33;;;;;;;;;;5043910;28;82616;-60
2022/12/01 03:48:51;;;;;;;7.93;3.57;;;;;;;;;;5043128;27;82036;-60
2022/12/01 03:51:22;;;;;;;4.10;2.90;;;;;;;;;;5041631;27;82500;-60
2022/12/01 03:53:52;;;;;;;7.40;4.17;;;;;;;;;;5043149;27;82916;-60
2022/12/01 03:56:21;;;;;;;9.50;3.60;;;;;;;;;;5043939;27;82748;-60
2022/12/01 03:58:49;;;;;;;4.80;3.03;;;;;;;;;;5043631;27;82175;-60
2022/12/01 04:01:19;;;;;;;7.33;3.70;;;;;;;;;;5048671;27;82538;-60
2022/12/01 04:03:47;;;;;;;4.00;2.90;;;;;;;;;;5063321;27;84153;-60
2022/12/01 04:06:15;;;;;;;5.93;2.73;;;;;;;;;;5045419;27;82830;-60
2022/12/01 04:08:45;;;;;;;6.97;3.57;;;;;;;;;;5043602;27;81942;-60
2022/12/01 04:14:05;;;;;;;6.00;3.43;;;;;;;;;;5043517;28;82645;-60
2022/12/01 04:16:33;;;;;;;5.37;2.60;;;;;;;;;;5043164;27;82673;-60
2022/12/01 04:19:02;;;;;;;4.27;2.87;;;;;;;;;;5042943;27;82967;-59
2022/12/01 04:21:30;;;;;;;6.93;3.47;;;;;;;;;;5047253;27;83188;-60
2022/12/01 04:23:59;;;;;;;5.13;3.13;;;;;;;;;;5044762;27;82671;-60
2022/12/01 04:26:28;;;;;;;6.00;3.53;;;;;;;;;;5043218;27;83524;-60
2022/12/01 04:28:56;;;;;;;7.63;4.20;;;;;;;;;;5054107;27;81981;-60
2022/12/01 04:31:24;;;;;;;6.17;2.67;;;;;;;;;;5063063;27;83967;-60
2022/12/01 04:33:54;;;;;;;4.53;2.80;;;;;;;;;;5050431;27;83217;-60
2022/12/01 04:36:23;;;;;;;4.50;2.73;;;;;;;;;;5048015;27;83854;-60
2022/12/01 04:38:51;;;;;;;4.93;3.10;;;;;;;;;;5052760;27;82471;-60
2022/12/01 04:41:20;;;;;;;4.43;2.50;;;;;;;;;;5051012;27;82754;-60
2022/12/01 04:43:49;;;;;;;3.33;2.17;;;;;;;;;;5060871;27;83791;-60
2022/12/01 04:46:17;;;;;;;4.80;2.33;;;;;;;;;;5049030;27;83790;-60
2022/12/01 04:48:45;;;;;;;4.63;2.80;;;;;;;;;;5059518;27;82030;-60
2022/12/01 04:51:14;;;;;;;5.07;2.60;;;;;;;;;;5042099;27;82832;-59
2022/12/01 04:53:42;;;;;;;6.40;3.17;;;;;;;;;;5058317;27;82764;-58
2022/12/01 04:56:10;;;;;;;5.87;2.60;;;;;;;;;;5062898;27;83825;-58
2022/12/01 04:58:40;;;;;;;4.83;3.30;;;;;;;;;;5064330;27;81848;-59
2022/12/01 05:01:09;;;;;;;4.63;3.17;;;;;;;;;;5065070;27;82406;-59
2022/12/01 05:03:37;;;;;;;5.60;2.93;;;;;;;;;;5087616;27;82090;-60
2022/12/01 05:06:05;;;;;;;6.30;3.03;;;;;;;;;;5066491;27;82899;-59
2022/12/01 05:08:34;;;;;;;8.73;4.07;;;;;;;;;;5055923;27;83087;-59
2022/12/01 05:11:03;;;;;;;7.57;3.57;;;;;;;;;;5050695;27;82432;-59
2022/12/01 05:13:32;;;;;;;5.93;3.67;;;;;;;;;;5042512;27;84281;-59
2022/12/01 05:16:06;;;;;;;8.10;3.47;;;;;;;;;;5041195;27;83168;-59
2022/12/01 05:18:34;;;;;;;4.03;2.60;;;;;;;;;;5043905;27;82010;-59
2022/12/01 05:21:02;;;;;;;5.47;3.23;;;;;;;;;;5044303;27;82827;-59
2022/12/01 05:23:31;;;;;;;9.00;4.10;;;;;;;;;;5045030;27;83209;-59
2022/12/01 05:25:59;;;;;;;7.83;3.03;;;;;;;;;;5047200;27;82636;-59
2022/12/01 05:28:28;;;;;;;5.73;2.73;;;;;;;;;;5047532;27;82131;-59
2022/12/01 05:30:56;;;;;;;4.20;2.53;;;;;;;;;;5046891;27;82672;-59
2022/12/01 05:33:26;;;;;;;5.50;2.73;;;;;;;;;;5064762;27;84208;-59
2022/12/01 05:35:54;;;;;;;5.13;2.93;;;;;;;;;;5067508;27;83782;-59
2022/12/01 05:38:23;;;;;;;5.20;2.47;;;;;;;;;;5067694;27;81788;-59
2022/12/01 05:40:52;;;;;;;4.27;2.07;;;;;;;;;;5067288;27;83632;-59
2022/12/01 05:43:20;;;;;;;2.27;1.73;;;;;;;;;;5067723;27;82729;-59
2022/12/01 05:45:56;;;;;;;4.77;2.57;;;;;;;;;;5066845;27;81950;-59
2022/12/01 05:48:26;;;;;;;4.87;2.70;;;;;;;;;;5067089;27;81713;-58
2022/12/01 05:50:54;;;;;;;4.37;2.37;;;;;;;;;;5067544;27;81641;-59
2022/12/01 05:53:22;;;;;;;3.10;2.13;;;;;;;;;;5067499;27;81898;-59
2022/12/01 05:55:52;;;;;;;4.83;3.13;;;;;;;;;;5066904;27;82423;-59
2022/12/01 05:58:20;;;;;;;3.73;2.23;;;;;;;;;;5066328;27;82885;-59
2022/12/01 06:00:48;;;;;;;4.40;2.20;;;;;;;;;;5066872;27;83406;-59
2022/12/01 06:03:17;;;;;;;6.00;2.80;;;;;;;;;;5066920;27;82858;-59
2022/12/01 06:05:46;;;;;;;6.60;2.83;;;;;;;;;;5066927;27;83683;-59
2022/12/01 06:08:14;;;;;;;6.63;2.40;;;;;;;;;;5066968;27;81793;-58
2022/12/01 06:10:43;;;;;;;4.23;2.53;;;;;;;;;;5067048;27;84062;-58
2022/12/01 06:13:11;;;;;;;4.43;2.27;;;;;;;;;;5063669;27;88086;-58
2022/12/01 06:15:39;;;;;;;4.43;2.73;;;;;;;;;;5064463;27;87720;-58
2022/12/01 06:18:08;;;;;;;4.60;2.57;;;;;;;;;;5064536;27;87099;-58
2022/12/01 06:20:36;;;;;;;3.30;2.03;;;;;;;;;;5064041;27;87054;-58
2022/12/01 06:23:05;;;;;;;4.87;2.10;;;;;;;;;;5063305;27;88910;-58
2022/12/01 06:25:34;;;;;;;6.53;2.50;;;;;;;;;;5064063;27;88498;-58
2022/12/01 06:28:02;;;;;;;5.20;2.37;;;;;;;;;;5064035;27;86901;-59
2022/12/01 06:30:30;;;;;;;6.13;2.53;;;;;;;;;;5064038;27;87050;-58
2022/12/01 06:32:59;;;;;;;4.80;2.13;;;;;;;;;;5063559;27;88024;-58
2022/12/01 06:35:27;;;;;;;2.97;2.03;;;;;;;;;;5064050;27;88955;-59
2022/12/01 06:37:55;;;;;;;6.60;2.30;;;;;;;;;;5064084;27;87041;-59
2022/12/01 06:40:25;;;;;;;2.87;1.73;;;;;;;;;;5064524;27;86152;-59
2022/12/01 06:42:54;;;;;;;3.70;2.53;;;;;;;;;;5063959;27;88107;-59
2022/12/01 06:45:22;;;;;;;3.53;2.57;;;;;;;;;;5063708;27;87817;-59
2022/12/01 06:47:53;;;;;;;4.07;2.37;;;;;;;;;;5063310;27;87670;-59
2022/12/01 06:50:21;;;;;;;5.13;2.70;;;;;;;;;;5062709;27;86812;-59
2022/12/01 06:52:51;;;;;;;4.30;2.00;;;;;;;;;;5063318;27;88819;-59
2022/12/01 06:55:20;;;;;;;4.60;2.90;;;;;;;;;;5063201;27;88780;-59
2022/12/01 06:57:49;;;;;;;3.70;1.73;;;;;;;;;;5063766;27;86947;-59
2022/12/01 07:00:19;;;;;;;6.03;2.97;;;;;;;;;;5063593;27;86809;-59
2022/12/01 07:02:47;;;;;;;3.80;2.27;;;;;;;;;;5063434;27;88090;-59
2022/12/01 07:05:15;;;;;;;4.37;2.33;;;;;;;;;;5063272;27;87646;-59
2022/12/01 07:07:44;;;;;;;3.63;1.70;;;;;;;;;;5063726;27;87078;-59
2022/12/01 07:10:12;;;;;;;5.60;2.50;;;;;;;;;;5063167;27;87068;-59
2022/12/01 07:12:41;;;;;;;2.50;1.83;;;;;;;;;;5062428;27;90084;-59
2022/12/01 07:15:11;;;;;;;5.57;2.70;;;;;;;;;;5062995;27;89495;-59
2022/12/01 07:17:40;;;;;;;3.60;2.17;;;;;;;;;;5063467;27;87094;-59
2022/12/01 07:20:10;;;;;;;1.90;1.43;;;;;;;;;;5062682;27;87007;-59
2022/12/01 07:22:38;;;;;;;7.20;2.50;;;;;;;;;;5062878;27;87974;-59
2022/12/01 07:25:07;;;;;;;4.50;1.83;;;;;;;;;;5062757;27;87719;-59
2022/12/01 07:27:36;;;;;;;4.57;2.40;;;;;;;;;;5062480;27;87019;-59
2022/12/01 07:30:04;;;;;;;4.10;2.37;;;;;;;;;;5063534;27;86438;-59
2022/12/01 07:32:34;;;;;;;3.47;2.60;;;;;;;;;;5061959;27;89149;-59
2022/12/01 07:35:02;;;;;;;3.07;2.03;;;;;;;;;;5063005;27;88089;-59
2022/12/01 07:37:31;;;;;;;3.80;2.10;;;;;;;;;;5062155;27;87946;-59
2022/12/01 07:39:59;;;;;;;2.70;2.17;;;;;;;;;;5062484;27;86984;-59
2022/12/01 07:42:27;;;;;;;3.63;1.83;;;;;;;;;;5062655;27;88303;-59
2022/12/01 07:44:56;;;;;;;4.43;2.53;;;;;;;;;;5062422;27;88736;-59
2022/12/01 07:47:24;;;;;;;2.70;1.83;;;;;;;;;;5062633;27;86992;-59
2022/12/01 07:49:54;;;;;;;5.87;3.30;;;;;;;;;;5062725;27;87003;-59
2022/12/01 07:52:22;;;;;;;4.10;2.27;;;;;;;;;;5062613;27;87975;-60
2022/12/01 07:54:51;;;;;;;3.80;2.27;;;;;;;;;;5062871;27;88849;-59
2022/12/01 07:57:19;;;;;;;4.17;2.00;;;;;;;;;;5062194;27;87519;-59
2022/12/01 07:59:48;;;;;;;1.97;1.70;;;;;;;;;;5062510;27;87187;-59
2022/12/01 08:02:17;;;;;;;3.57;2.30;;;;;;;;;;5061411;27;90102;-58
2022/12/01 08:04:45;;;;;;;4.03;2.57;;;;;;;;;;5062089;27;88615;-59
2022/12/01 08:07:15;;;;;;;3.80;2.23;;;;;;;;;;5062902;27;87028;-59
2022/12/01 08:09:44;;;;;;;5.10;2.43;;;;;;;;;;5062660;27;86995;-60
2022/12/01 08:12:12;;;;;;;4.33;2.67;;;;;;;;;;5061818;27;88317;-59
2022/12/01 08:14:41;;;;;;;6.50;2.50;;;;;;;;;;5062116;27;88886;-59
2022/12/01 08:17:09;;;;;;;4.57;2.23;;;;;;;;;;5062444;27;87027;-59
2022/12/01 08:19:38;;;;;;;6.53;2.57;;;;;;;;;;5062713;27;86038;-59
2022/12/01 08:22:06;;;;;;;5.10;2.60;;;;;;;;;;5061963;27;88883;-60
2022/12/01 08:24:36;;;;;;;4.60;2.40;;;;;;;;;;5062295;27;87865;-59
2022/12/01 08:27:04;;;;;;;6.03;2.70;;;;;;;;;;5061922;27;87943;-60
2022/12/01 08:29:32;;;;;;;7.57;2.50;;;;;;;;;;5062318;27;87012;-59
2022/12/01 08:32:01;;;;;;;4.87;2.60;;;;;;;;;;5061799;27;87034;-60
2022/12/01 08:34:29;;;;;;;4.00;2.20;;;;;;;;;;5061425;27;87651;-60
2022/12/01 08:36:57;;;;;;;4.53;2.17;;;;;;;;;;5061435;27;87053;-60
2022/12/01 08:39:26;;;;;;;3.57;2.30;;;;;;;;;;5062198;27;86848;-60
2022/12/01 08:41:55;;;;;;;3.13;1.67;;;;;;;;;;5061932;27;88130;-60
2022/12/01 08:44:24;;;;;;;5.03;2.20;;;;;;;;;;5062115;27;87782;-59
2022/12/01 08:46:53;;;;;;;3.67;2.67;;;;;;;;;;5062091;27;87071;-59
2022/12/01 08:49:22;;;;;;;5.00;2.37;;;;;;;;;;5061954;27;86920;-59
2022/12/01 08:51:50;;;;;;;4.23;2.33;;;;;;;;;;5060808;27;90095;-60
2022/12/01 08:54:18;;;;;;;3.57;2.40;;;;;;;;;;5061758;27;88711;-59
2022/12/01 08:56:46;;;;;;;3.50;2.10;;;;;;;;;;5061239;27;86993;-59
2022/12/01 08:59:16;;;;;;;5.03;2.63;;;;;;;;;;5061709;27;86718;-60
2022/12/01 09:01:54;;;;;;;3.83;2.13;;;;;;;;;;5061813;27;86774;-60
2022/12/01 09:04:22;;;;;;;3.27;2.23;;;;;;;;;;5061515;27;88784;-60
2022/12/01 09:06:51;;;;;;;5.03;2.87;;;;;;;;;;5062088;27;87039;-59
2022/12/01 09:09:20;;;;;;;3.50;1.97;;;;;;;;;;5061916;27;86302;-60
2022/12/01 09:11:48;;;;;;;3.10;2.33;;;;;;;;;;5061677;27;87942;-60
2022/12/01 09:14:18;;;;;;;3.43;2.10;;;;;;;;;;5061440;27;87979;-60
2022/12/01 09:16:48;;;;;;;4.20;2.20;;;;;;;;;;5061192;27;87848;-61
2022/12/01 09:19:17;;;;;;;4.03;2.03;;;;;;;;;;5061578;27;87062;-61
2022/12/01 09:21:52;;;;;;;4.93;2.10;;;;;;;;;;5060786;27;88876;-61
2022/12/01 09:24:20;;;;;;;3.67;2.47;;;;;;;;;;5061295;27;87736;-59
2022/12/01 09:26:49;;;;;;;3.03;1.87;;;;;;;;;;5061314;27;87064;-59
2022/12/01 09:29:18;;;;;;;3.40;2.20;;;;;;;;;;5061266;27;86942;-61
2022/12/01 09:31:47;;;;;;;4.40;2.53;;;;;;;;;;5061332;27;87748;-59
2022/12/01 09:34:15;;;;;;;2.73;1.80;;;;;;;;;;5061199;27;87810;-58
2022/12/01 09:36:44;;;;;;;5.37;2.50;;;;;;;;;;5061337;27;86985;-61
2022/12/01 09:39:13;;;;;;;3.00;2.00;;;;;;;;;;5061318;27;86927;-59
2022/12/01 09:41:43;;;;;;;4.20;2.13;;;;;;;;;;5060618;27;89241;-61
2022/12/01 09:44:14;;;;;;;4.10;1.93;;;;;;;;;;5060590;27;89055;-61
2022/12/01 09:46:45;;;;;;;4.47;2.10;;;;;;;;;;5061570;27;87032;-62
2022/12/01 09:49:13;;;;;;;3.27;1.97;;;;;;;;;;5063624;27;86988;-61
2022/12/01 09:51:42;;;;;;;3.23;2.30;;;;;;;;;;5064381;27;87850;-61
2022/12/01 09:54:11;;;;;;;2.47;1.90;;;;;;;;;;5064603;27;88981;-60
2022/12/01 09:56:40;;;;;;;3.10;2.03;;;;;;;;;;5064287;27;87009;-59
2022/12/01 09:59:08;;;;;;;5.90;2.53;;;;;;;;;;5064358;27;86255;-59
2022/12/01 10:01:38;;;;;;;4.60;1.77;;;;;;;;;;5064542;27;88202;-59
2022/12/01 10:04:09;;;;;;;3.20;2.00;;;;;;;;;;5064355;27;88796;-59
2022/12/01 10:06:38;;;;;;;4.87;2.40;;;;;;;;;;5064261;27;87927;-60
2022/12/01 10:09:11;;;;;;;3.07;2.13;;;;;;;;;;5064373;27;87031;-59
2022/12/01 10:11:40;;;;;;;2.60;1.97;;;;;;;;;;5064393;27;88998;-59
2022/12/01 10:14:09;;;;;;;5.50;2.67;;;;;;;;;;5064021;27;87777;-59
2022/12/01 10:16:46;;;;;;;4.17;2.53;;;;;;;;;;5064295;27;87139;-59
2022/12/01 10:19:17;;;;;;;3.67;2.47;;;;;;;;;;5064064;27;87004;-59
2022/12/01 10:21:52;;;;;;;6.80;2.90;;;;;;;;;;5063382;27;88097;-60
2022/12/01 10:24:33;;;;;;;4.77;3.00;;;;;;;;;;5064101;27;88897;-59
2022/12/01 10:27:03;;;;;;;3.97;2.07;;;;;;;;;;5063925;27;86757;-58
2022/12/01 10:29:32;;;;;;;5.13;2.83;;;;;;;;;;5063765;27;87125;-58
2022/12/01 10:32:02;;;;;;;4.50;2.30;;;;;;;;;;5063558;27;90046;-58
2022/12/01 10:34:32;;;;;;;5.50;2.20;;;;;;;;;;5062755;27;89889;-59
2022/12/01 10:37:01;;;;;;;5.37;2.27;;;;;;;;;;5063890;27;86972;-59
2022/12/01 10:39:29;;;;;;;3.73;2.07;;;;;;;;;;5063814;27;87012;-59
2022/12/01 10:42:00;;;;;;;4.87;2.77;;;;;;;;;;5063612;27;88085;-59
2022/12/01 10:44:29;;;;;;;5.23;2.67;;;;;;;;;;5063254;27;88871;-59
2022/12/01 10:46:57;;;;;;;4.97;2.37;;;;;;;;;;5064076;27;86970;-59
2022/12/01 10:49:36;;;;;;;4.53;2.27;;;;;;;;;;5064227;27;86424;-59
2022/12/01 10:52:05;;;;;;;3.30;1.70;;;;;;;;;;5063292;27;88004;-58
2022/12/01 10:54:35;;;;;;;4.10;2.17;;;;;;;;;;5063187;27;87919;-59
2022/12/01 10:57:04;;;;;;;3.40;2.17;;;;;;;;;;5063278;27;87679;-60
2022/12/01 10:59:33;;;;;;;3.37;2.13;;;;;;;;;;5063217;27;86999;-59
2022/12/01 11:02:02;;;;;;;4.40;2.07;;;;;;;;;;5062953;27;87801;-60
2022/12/01 11:04:34;;;;;;;3.50;2.47;;;;;;;;;;5062926;27;88735;-59
2022/12/01 11:07:04;;;;;;;4.40;2.10;;;;;;;;;;5063720;27;86753;-59
2022/12/01 11:09:32;;;;;;;4.20;2.50;;;;;;;;;;5063571;27;86910;-59
2022/12/01 11:12:01;;;;;;;3.43;2.53;;;;;;;;;;5062845;27;87014;-60
2022/12/01 11:14:34;;;;;;;6.20;2.47;;;;;;;;;;5063216;27;86395;-59
2022/12/01 11:17:14;;;;;;;5.87;2.57;;;;;;;;;;5063517;27;86710;-60
2022/12/01 11:19:43;;;;;;;3.63;2.20;;;;;;;;;;5063301;27;86919;-59
2022/12/01 11:22:22;;;;;;;4.70;2.97;;;;;;;;;;5062324;27;88955;-59
2022/12/01 11:24:56;;;;;;;11.33;2.60;;;;;;;;;;5062998;27;87577;-59
2022/12/01 11:27:25;;;;;;;3.60;2.30;;;;;;;;;;5062835;27;86926;-60
2022/12/01 11:29:55;;;;;;;2.30;1.97;;;;;;;;;;5063417;27;87013;-60
2022/12/01 11:32:24;;;;;;;5.43;2.40;;;;;;;;;;5062910;27;88231;-60
2022/12/01 11:34:54;;;;;;;3.00;1.97;;;;;;;;;;5058798;27;88630;-61
2022/12/01 11:37:24;;;;;;;4.83;2.40;;;;;;;;;;5063561;27;86701;-61
2022/12/01 11:39:52;;;;;;;3.13;2.20;;;;;;;;;;5063395;27;86204;-61
2022/12/01 11:42:22;;;;;;;4.80;2.80;;;;;;;;;;5062623;27;88117;-59
2022/12/01 11:44:52;;;;;;;5.00;2.60;;;;;;;;;;5062545;27;87761;-60
2022/12/01 11:47:21;;;;;;;4.10;2.80;;;;;;;;;;5062102;27;87942;-60
2022/12/01 11:49:55;;;;;;;4.90;2.60;;;;;;;;;;5062307;27;86949;-60
2022/12/01 11:52:27;;;;;;;6.43;2.47;;;;;;;;;;5062694;27;88869;-61
2022/12/01 11:54:56;;;;;;;4.87;2.40;;;;;;;;;;5062576;27;88871;-61
2022/12/01 11:57:24;;;;;;;3.47;2.17;;;;;;;;;;5062223;27;86983;-61
2022/12/01 12:00:01;;;;;;;4.23;2.47;;;;;;;;;;5062228;27;86902;-60
2022/12/01 12:02:31;;;;;;;4.53;2.90;;;;;;;;;;5062062;27;88253;-61
2022/12/01 12:05:07;;;;;;;5.60;2.07;;;;;;;;;;5062741;27;88026;-61
2022/12/01 12:07:38;;;;;;;4.47;2.97;;;;;;;;;;5062777;27;86946;-60
2022/12/01 12:10:12;;;;;;;4.07;2.50;;;;;;;;;;5061946;27;86999;-60
2022/12/01 12:12:45;;;;;;;6.00;2.80;;;;;;;;;;5061445;27;90182;-60
2022/12/01 12:15:16;;;;;;;4.57;2.77;;;;;;;;;;5061900;27;89827;-61
2022/12/01 12:17:48;;;;;;;2.73;2.23;;;;;;;;;;5062524;27;86851;-60
2022/12/01 12:20:22;;;;;;;3.07;2.20;;;;;;;;;;5062335;27;87106;-61
2022/12/01 12:22:55;;;;;;;7.57;2.37;;;;;;;;;;5062437;27;87940;-61
2022/12/01 12:25:26;;;;;;;6.70;2.47;;;;;;;;;;5061881;27;88901;-61
2022/12/01 12:27:58;;;;;;;3.70;2.80;;;;;;;;;;5062182;27;86787;-60
2022/12/01 12:30:29;;;;;;;3.80;2.40;;;;;;;;;;5062517;27;86232;-61
2022/12/01 12:33:07;;;;;;;4.30;2.50;;;;;;;;;;5061373;27;88026;-61
2022/12/01 12:35:37;;;;;;;5.07;2.63;;;;;;;;;;5062287;27;87560;-60
2022/12/01 12:38:09;;;;;;;6.37;2.40;;;;;;;;;;5062352;27;87790;-61
2022/12/01 12:40:42;;;;;;;5.30;2.37;;;;;;;;;;5062350;27;86963;-61
2022/12/01 12:43:18;;;;;;;5.30;2.80;;;;;;;;;;5062318;27;88109;-61
2022/12/01 12:45:50;;;;;;;3.43;2.40;;;;;;;;;;5062143;27;87578;-60
2022/12/01 12:48:22;;;;;;;6.83;1.87;;;;;;;;;;5061877;27;87069;-61
2022/12/01 12:50:51;;;;;;;6.07;2.87;;;;;;;;;;5062192;27;86904;-60
2022/12/01 12:53:21;;;;;;;4.07;2.80;;;;;;;;;;5061764;27;88173;-61
2022/12/01 12:55:50;;;;;;;4.57;2.80;;;;;;;;;;5062020;27;86297;-61
2022/12/01 12:58:21;;;;;;;5.60;2.33;;;;;;;;;;5062083;27;86987;-61
2022/12/01 13:00:50;;;;;;;5.43;2.10;;;;;;;;;;5061985;27;87071;-61
2022/12/01 13:03:20;;;;;;;5.17;2.70;;;;;;;;;;5061201;27;89146;-60
2022/12/01 13:05:49;;;;;;;4.10;2.30;;;;;;;;;;5060718;27;88571;-60
2022/12/01 13:08:18;;;;;;;3.87;2.63;;;;;;;;;;5061856;27;87141;-61
2022/12/01 13:10:49;;;;;;;5.97;2.50;;;;;;;;;;5061962;27;87003;-60
2022/12/01 13:13:21;;;;;;;5.60;2.47;;;;;;;;;;5061202;27;87744;-61
2022/12/01 13:15:49;;;;;;;4.47;2.43;;;;;;;;;;5061348;27;87556;-60
2022/12/01 13:18:22;;;;;;;5.33;2.33;;;;;;;;;;5061275;27;88071;-61
2022/12/01 13:20:50;;;;;;;3.17;2.20;;;;;;;;;;5061504;27;86264;-61
2022/12/01 13:23:19;;;;;;;5.83;2.40;;;;;;;;;;5063625;27;87768;-60
2022/12/01 13:25:50;;;;;;;3.43;2.10;;;;;;;;;;5064584;27;87629;-61
2022/12/01 13:28:19;;;;;;;3.07;2.07;;;;;;;;;;5064565;27;87981;-60
2022/12/01 13:31:00;;;;;;;3.47;2.10;;;;;;;;;;5064723;27;86929;-62
2022/12/01 13:33:29;;;;;;;3.80;2.73;;;;;;;;;;5064047;27;87835;-61
2022/12/01 13:35:57;;;;;;;4.27;2.57;;;;;;;;;;5064630;27;87659;-61
2022/12/01 13:38:52;;;;;;;2.47;2.20;;;;;;;;;;5064940;27;86882;-61
2022/12/01 13:41:23;;;;;;;2.77;1.80;;;;;;;;;;5064896;27;87033;-61
2022/12/01 13:43:54;;;;;;;4.57;2.03;;;;;;;;;;5064852;27;86985;-61
2022/12/01 13:46:22;;;;;;;2.07;1.47;;;;;;;;;;5064578;27;88002;-61
2022/12/01 13:48:51;;;;;;;3.57;1.57;;;;;;;;;;5064144;27;87001;-60
2022/12/01 13:51:20;;;;;;;3.57;2.13;;;;;;;;;;5064171;27;87048;-61
2022/12/01 13:53:58;;;;;;;3.83;2.27;;;;;;;;;;5063552;27;89220;-61
2022/12/01 13:56:35;;;;;;;3.80;2.20;;;;;;;;;;5064901;27;87483;-60
2022/12/01 13:59:23;;;;;;;2.83;2.00;;;;;;;;;;5064486;27;86700;-61
2022/12/01 14:01:51;;;;;;;3.93;2.00;;;;;;;;;;5063908;27;86868;-61
2022/12/01 14:04:38;;;;;;;2.60;1.57;;;;;;;;;;5063599;27;86943;-62
2022/12/01 14:07:24;;;;;;;4.47;2.33;;;;;;;;;;5063424;27;88909;-61
2022/12/01 14:09:53;;;;;;;6.37;2.23;;;;;;;;;;5063604;27;87035;-61
2022/12/01 14:12:24;;;;;;;2.93;1.80;;;;;;;;;;5064903;27;86151;-62
2022/12/01 14:14:54;;;;;;;5.20;2.23;;;;;;;;;;5063809;27;88229;-60
2022/12/01 14:17:26;;;;;;;2.87;2.00;;;;;;;;;;5063726;27;88815;-60
2022/12/01 14:19:54;;;;;;;4.37;2.03;;;;;;;;;;5063204;27;87947;-60
2022/12/01 14:22:32;;;;;;;2.13;1.60;;;;;;;;;;5063857;27;87013;-61
2022/12/01 14:25:01;;;;;;;3.40;2.23;;;;;;;;;;5064398;27;88940;-61
2022/12/01 14:27:37;;;;;;;3.43;2.30;;;;;;;;;;5063745;27;86996;-61
2022/12/01 14:30:21;;;;;;;5.07;1.87;;;;;;;;;;5064326;27;86913;-62
2022/12/01 14:32:49;;;;;;;5.63;2.63;;;;;;;;;;5041052;27;87062;-61
2022/12/01 14:35:17;;;;;;;3.70;2.10;;;;;;;;;;5062744;27;88609;-60
2022/12/01 14:37:49;;;;;;;2.40;1.90;;;;;;;;;;5064604;27;91038;-61
2022/12/01 14:40:24;;;;;;;4.50;2.23;;;;;;;;;;5064564;27;86830;-60
2022/12/01 14:45:41;;;;;;;3.03;2.23;;;;;;;;;;5063141;27;89268;-61
2022/12/01 14:48:10;;;;;;;4.30;2.60;;;;;;;;;;5063551;27;88962;-61
2022/12/01 14:50:40;;;;;;;2.83;2.40;;;;;;;;;;5063855;27;87011;-61
2022/12/01 14:53:19;;;;;;;2.97;1.80;;;;;;;;;;5063867;27;86804;-61
2022/12/01 14:55:49;;;;;;;3.23;1.70;;;;;;;;;;5063343;27;87718;-61
2022/12/01 14:58:19;;;;;;;3.37;1.90;;;;;;;;;;5063305;27;88775;-61
2022/12/01 15:00:58;;;;;;;3.67;2.00;;;;;;;;;;5063896;27;86991;-60